createdAt,value
2019-04-27T00:00:09.267Z,95266.70
2019-04-27T00:03:02.262Z,95268.17
2019-04-27T00:05:48.786Z,95271.97
2019-04-27T00:08:28.508Z,95252.20
2019-04-27T00:11:17.113Z,95249.70
2019-04-27T00:13:47.133Z,95255.13
2019-04-27T00:16:36.070Z,95257.06
2019-04-27T00:19:16.439Z,95249.63
2019-04-27T00:21:58.781Z,95249.33
2019-04-27T00:24:28.820Z,95243.23
2019-04-27T00:26:58.816Z,95243.72
2019-04-27T00:29:28.837Z,95247.98
2019-04-27T00:31:58.818Z,95249.08
2019-04-27T00:34:28.762Z,95256.59
2019-04-27T00:37:24.045Z,95251.76
2019-04-27T00:40:03.536Z,95248.17
2019-04-27T00:42:35.640Z,95252.39
2019-04-27T00:45:07.024Z,95245.06
2019-04-27T00:47:37.069Z,95245.78
2019-04-27T00:50:08.327Z,95243.01
2019-04-27T00:52:38.216Z,95246.64
2019-04-27T00:55:08.221Z,95246.16
2019-04-27T00:57:58.993Z,95241.45
2019-04-27T01:00:47.284Z,95245.13
2019-04-27T01:03:40.563Z,95248.19
2019-04-27T01:06:10.585Z,95239.83
2019-04-27T01:08:40.531Z,95234.50
2019-04-27T01:11:10.502Z,95239.53
2019-04-27T01:13:40.540Z,95240.91
2019-04-27T01:16:13.177Z,95238.97
2019-04-27T01:18:42.367Z,95246.73
2019-04-27T01:21:12.448Z,95236.80
2019-04-27T01:23:42.460Z,95239.31
2019-04-27T01:26:30.567Z,95236.06
2019-04-27T01:29:04.148Z,95235.45
2019-04-27T01:31:34.054Z,95237.71
2019-04-27T01:34:04.032Z,95246.52
2019-04-27T01:36:33.908Z,95245.86
2019-04-27T01:39:06.429Z,95252.13
2019-04-27T01:41:36.437Z,95245.36
2019-04-27T01:44:06.420Z,95248.83
2019-04-27T01:46:36.345Z,95249.53
2019-04-27T01:49:06.699Z,95250.53
2019-04-27T01:51:36.760Z,95255.49
2019-04-27T01:54:10.220Z,95258.61
2019-04-27T01:56:40.007Z,95255.86
2019-04-27T01:59:09.978Z,95255.77
2019-04-27T02:02:03.217Z,95261.84
2019-04-27T02:04:43.868Z,95255.13
2019-04-27T02:07:13.878Z,95249.05
2019-04-27T02:09:43.865Z,95247.98
2019-04-27T02:12:13.981Z,95249.21
2019-04-27T02:14:43.948Z,95246.14
2019-04-27T02:17:13.991Z,95249.62
2019-04-27T02:19:43.984Z,95252.70
2019-04-27T02:22:14.814Z,95252.70
2019-04-27T02:24:44.831Z,95251.21
2019-04-27T02:27:16.551Z,95237.20
2019-04-27T02:30:04.113Z,95239.88
2019-04-27T02:32:55.844Z,95231.44
2019-04-27T02:35:25.745Z,95231.82
2019-04-27T02:37:55.655Z,95220.56
2019-04-27T02:40:55.818Z,95222.31
2019-04-27T02:43:33.200Z,95221.72
2019-04-27T02:46:04.351Z,95209.53
2019-04-27T02:48:34.385Z,95214.95
2019-04-27T02:51:06.447Z,95215.99
2019-04-27T02:53:55.929Z,95213.20
2019-04-27T02:56:26.022Z,95211.04
2019-04-27T02:58:55.945Z,95211.25
2019-04-27T03:01:30.585Z,95214.16
2019-04-27T03:04:00.549Z,95218.66
2019-04-27T03:06:31.763Z,95215.31
2019-04-27T03:09:01.629Z,95216.12
2019-04-27T03:11:33.288Z,95213.31
2019-04-27T03:14:40.603Z,95216.41
2019-04-27T03:17:22.769Z,95215.36
2019-04-27T03:20:19.947Z,95213.23
2019-04-27T03:22:54.837Z,95210.39
2019-04-27T03:25:45.518Z,95221.63
2019-04-27T03:28:19.671Z,95223.97
2019-04-27T03:30:52.209Z,95223.23
2019-04-27T03:33:22.169Z,95231.02
2019-04-27T03:35:53.279Z,95231.80
2019-04-27T03:38:23.538Z,95246.14
2019-04-27T03:40:53.566Z,95242.27
2019-04-27T03:43:24.972Z,95242.77
2019-04-27T03:45:55.495Z,95236.69
2019-04-27T03:48:29.029Z,95234.23
2019-04-27T03:51:23.081Z,95229.98
2019-04-27T03:54:04.097Z,95228.70
2019-04-27T03:56:56.151Z,95227.25
2019-04-27T03:59:34.514Z,95226.73
2019-04-27T04:02:04.589Z,95227.43
2019-04-27T04:04:34.604Z,95224.36
2019-04-27T04:07:22.766Z,95227.66
2019-04-27T04:09:52.806Z,95222.05
2019-04-27T04:12:40.762Z,95229.80
2019-04-27T04:15:14.438Z,95227.25
2019-04-27T04:17:44.469Z,95213.06
2019-04-27T04:20:14.651Z,95225.23
2019-04-27T04:22:44.590Z,95221.88
2019-04-27T04:25:16.242Z,95222.98
2019-04-27T04:27:46.063Z,95230.52
2019-04-27T04:30:16.171Z,95229.98
2019-04-27T04:32:46.073Z,95231.98
2019-04-27T04:35:21.178Z,95224.80
2019-04-27T04:37:52.922Z,95232.91
2019-04-27T04:40:30.669Z,95230.70
2019-04-27T04:43:06.080Z,95231.37
2019-04-27T04:46:00.516Z,95224.48
2019-04-27T04:48:30.500Z,95228.66
2019-04-27T04:51:00.477Z,95224.25
2019-04-27T04:53:31.513Z,95231.28
2019-04-27T04:56:01.534Z,95225.13
2019-04-27T04:58:31.520Z,95231.32
2019-04-27T05:01:01.991Z,95234.48
2019-04-27T05:03:32.093Z,95232.49
2019-04-27T05:06:02.028Z,95231.89
2019-04-27T05:08:33.174Z,95243.34
2019-04-27T05:11:04.311Z,95238.32
2019-04-27T05:13:34.231Z,95237.05
2019-04-27T05:16:04.145Z,95231.93
2019-04-27T05:18:33.958Z,95234.85
2019-04-27T05:21:13.690Z,95241.55
2019-04-27T05:23:43.703Z,95242.80
2019-04-27T05:26:13.657Z,95243.84
2019-04-27T05:28:43.480Z,95252.50
2019-04-27T05:31:13.354Z,95242.93
2019-04-27T05:33:43.283Z,95240.85
2019-04-27T05:36:13.449Z,95248.83
2019-04-27T05:38:45.975Z,95247.67
2019-04-27T05:41:15.176Z,95250.33
2019-04-27T05:44:13.233Z,95242.45
2019-04-27T05:46:53.707Z,95250.56
2019-04-27T05:49:31.087Z,95239.45
2019-04-27T05:52:01.077Z,95244.78
2019-04-27T05:54:31.055Z,95245.77
2019-04-27T05:57:00.874Z,95251.03
2019-04-27T05:59:30.854Z,95246.36
2019-04-27T06:02:00.830Z,95250.44
2019-04-27T06:04:30.758Z,95253.89
2019-04-27T06:07:01.124Z,95254.08
2019-04-27T06:09:31.026Z,95257.31
2019-04-27T06:12:00.854Z,95268.77
2019-04-27T06:14:30.686Z,95262.27
2019-04-27T06:17:00.588Z,95268.67
2019-04-27T06:19:30.419Z,95259.17
2019-04-27T06:22:01.343Z,95260.57
2019-04-27T06:24:31.482Z,95256.73
2019-04-27T06:27:01.413Z,95260.30
2019-04-27T06:29:31.325Z,95257.81
2019-04-27T06:32:01.333Z,95255.11
2019-04-27T06:34:31.315Z,95252.23
2019-04-27T06:37:01.250Z,95257.84
2019-04-27T06:39:31.143Z,95253.35
2019-04-27T06:42:01.416Z,95259.13
2019-04-27T06:44:31.359Z,95252.58
2019-04-27T06:47:01.294Z,95254.59
2019-04-27T06:49:31.217Z,95258.63
2019-04-27T06:52:01.075Z,95263.77
2019-04-27T06:54:31.089Z,95260.03
2019-04-27T06:57:00.987Z,95257.79
2019-04-27T06:59:30.893Z,95250.61
2019-04-27T07:02:00.975Z,95260.37
2019-04-27T07:04:31.832Z,95254.95
2019-04-27T07:07:01.868Z,95261.45
2019-04-27T07:09:31.729Z,95262.63
2019-04-27T07:12:01.784Z,95265.22
2019-04-27T07:14:31.666Z,95259.38
2019-04-27T07:17:01.594Z,95258.58
2019-04-27T07:19:31.547Z,95259.86
2019-04-27T07:22:01.473Z,95262.23
2019-04-27T07:24:31.491Z,95255.80
2019-04-27T07:27:01.342Z,95262.83
2019-04-27T07:29:31.184Z,95253.28
2019-04-27T07:32:02.156Z,95249.89
2019-04-27T07:34:32.230Z,95249.50
2019-04-27T07:37:02.101Z,95255.70
2019-04-27T07:39:32.002Z,95251.39
2019-04-27T07:42:01.942Z,95255.65
2019-04-27T07:44:38.954Z,95255.74
2019-04-27T07:47:23.018Z,95245.27
2019-04-27T07:49:52.938Z,95247.31
2019-04-27T07:52:22.996Z,95246.92
2019-04-27T07:54:52.825Z,95245.38
2019-04-27T07:57:22.782Z,95243.39
2019-04-27T07:59:52.700Z,95236.14
2019-04-27T08:02:22.614Z,95232.45
2019-04-27T08:04:52.555Z,95241.70
2019-04-27T08:07:22.386Z,95230.58
2019-04-27T08:09:52.323Z,95232.72
2019-04-27T08:12:22.362Z,95234.05
2019-04-27T08:14:52.156Z,95239.92
2019-04-27T08:17:23.097Z,95232.28
2019-04-27T08:19:53.076Z,95225.19
2019-04-27T08:22:23.949Z,95231.32
2019-04-27T08:24:53.854Z,95232.52
2019-04-27T08:27:42.219Z,95230.32
2019-04-27T08:30:43.509Z,95224.94
2019-04-27T08:33:13.808Z,95229.75
2019-04-27T08:35:43.729Z,95224.88
2019-04-27T08:38:13.710Z,95226.77
2019-04-27T08:40:43.595Z,95212.78
2019-04-27T08:43:13.626Z,95222.97
2019-04-27T08:45:43.488Z,95209.91
2019-04-27T08:48:13.421Z,95211.88
2019-04-27T08:50:43.294Z,95204.48
2019-04-27T08:53:13.188Z,95202.88
2019-04-27T08:55:43.028Z,95197.16
2019-04-27T08:58:13.957Z,95209.33
2019-04-27T09:00:43.951Z,95198.97
2019-04-27T09:03:13.920Z,95198.72
2019-04-27T09:05:43.942Z,95190.14
2019-04-27T09:08:39.031Z,95201.63
2019-04-27T09:11:29.019Z,95189.70
2019-04-27T09:14:09.107Z,95189.25
2019-04-27T09:17:02.969Z,95183.37
2019-04-27T09:19:49.224Z,95181.36
2019-04-27T09:22:20.762Z,95178.91
2019-04-27T09:24:50.875Z,95172.41
2019-04-27T09:27:20.852Z,95176.66
2019-04-27T09:29:50.792Z,95173.34
2019-04-27T09:32:20.888Z,95163.22
2019-04-27T09:34:50.908Z,95172.83
2019-04-27T09:37:20.841Z,95170.92
2019-04-27T09:39:50.743Z,95159.73
2019-04-27T09:42:20.654Z,95165.08
2019-04-27T09:44:50.497Z,95155.69
2019-04-27T09:47:20.326Z,95166.42
2019-04-27T09:49:50.241Z,95160.05
2019-04-27T09:52:26.305Z,95160.61
2019-04-27T09:54:51.826Z,95167.00
2019-04-27T09:57:21.725Z,95160.63
2019-04-27T09:59:51.711Z,95159.50
2019-04-27T10:02:21.603Z,95168.23
2019-04-27T10:04:51.800Z,95156.91
2019-04-27T10:07:21.865Z,95158.03
2019-04-27T10:09:51.699Z,95152.23
2019-04-27T10:12:21.684Z,95160.00
2019-04-27T10:14:51.582Z,95152.25
2019-04-27T10:17:21.408Z,95154.69
2019-04-27T10:19:51.262Z,95154.43
2019-04-27T10:22:21.298Z,95149.20
2019-04-27T10:24:51.230Z,95151.21
2019-04-27T10:27:21.070Z,95135.90
2019-04-27T10:29:51.857Z,95133.09
2019-04-27T10:32:21.761Z,95134.02
2019-04-27T10:34:51.627Z,95133.36
2019-04-27T10:37:21.547Z,95140.08
2019-04-27T10:39:51.450Z,95131.98
2019-04-27T10:42:21.284Z,95130.34
2019-04-27T10:44:51.108Z,95126.54
2019-04-27T10:47:21.010Z,95123.31
2019-04-27T10:49:50.863Z,95125.00
2019-04-27T10:52:20.847Z,95117.45
2019-04-27T10:54:50.674Z,95111.64
2019-04-27T10:57:20.487Z,95124.14
2019-04-27T10:59:50.347Z,95124.96
2019-04-27T11:02:20.269Z,95109.49
2019-04-27T11:04:58.924Z,95105.38
2019-04-27T11:07:32.927Z,95094.78
2019-04-27T11:10:03.389Z,95011.34
2019-04-27T11:12:33.344Z,95089.14
2019-04-27T11:15:03.321Z,95088.59
2019-04-27T11:17:33.261Z,95092.72
2019-04-27T11:20:03.254Z,95097.91
2019-04-27T11:22:33.252Z,95097.85
2019-04-27T11:25:03.062Z,95100.98
2019-04-27T11:27:32.964Z,95104.17
2019-04-27T11:30:02.872Z,95104.17
2019-04-27T11:32:34.628Z,95103.69
2019-04-27T11:35:13.408Z,95109.37
2019-04-27T11:37:43.334Z,95102.45
2019-04-27T11:40:13.804Z,95086.08
2019-04-27T11:42:43.771Z,95099.46
2019-04-27T11:45:13.947Z,95093.59
2019-04-27T11:47:43.946Z,95103.77
2019-04-27T11:50:14.326Z,95114.26
2019-04-27T11:52:45.715Z,95102.77
2019-04-27T11:55:17.275Z,95100.88
2019-04-27T11:57:47.306Z,95100.80
2019-04-27T12:00:19.763Z,95105.56
2019-04-27T12:02:49.733Z,95100.09
2019-04-27T12:05:19.822Z,95093.48
2019-04-27T12:07:49.731Z,95097.78
2019-04-27T12:10:20.326Z,95104.02
2019-04-27T12:12:50.219Z,95111.83
2019-04-27T12:15:20.995Z,95108.67
2019-04-27T12:17:50.925Z,95100.63
2019-04-27T12:20:20.880Z,95098.25
2019-04-27T12:22:50.827Z,95109.00
2019-04-27T12:25:21.782Z,95095.20
2019-04-27T12:28:10.781Z,95105.59
2019-04-27T12:30:49.162Z,95103.42
2019-04-27T12:33:19.071Z,95104.38
2019-04-27T12:35:48.969Z,95135.85
2019-04-27T12:38:20.185Z,95101.36
2019-04-27T12:40:50.083Z,95111.52
2019-04-27T12:43:20.199Z,95103.80
2019-04-27T12:45:50.194Z,95097.63
2019-04-27T12:48:20.289Z,95111.98
2019-04-27T12:50:50.222Z,95102.64
2019-04-27T12:53:49.952Z,95096.92
2019-04-27T12:56:18.190Z,95107.39
2019-04-27T12:58:56.484Z,95108.29
2019-04-27T13:01:26.906Z,95104.55
2019-04-27T13:03:59.063Z,95094.44
2019-04-27T13:06:29.598Z,95090.69
2019-04-27T13:08:59.558Z,95095.47
2019-04-27T13:11:29.546Z,95076.84
2019-04-27T13:13:59.467Z,95097.41
2019-04-27T13:16:30.509Z,95076.59
2019-04-27T13:19:00.397Z,95078.57
2019-04-27T13:21:30.438Z,95070.17
2019-04-27T13:24:04.510Z,95091.95
2019-04-27T13:26:33.063Z,95080.52
2019-04-27T13:29:03.062Z,95078.42
2019-04-27T13:31:32.966Z,95085.59
2019-04-27T13:34:02.942Z,95085.01
2019-04-27T13:36:33.153Z,95078.67
2019-04-27T13:39:06.343Z,95096.41
2019-04-27T13:41:36.644Z,95088.08
2019-04-27T13:44:06.715Z,95096.55
2019-04-27T13:46:58.470Z,95073.89
2019-04-27T13:49:37.845Z,95064.36
2019-04-27T13:52:12.863Z,95057.77
2019-04-27T13:54:42.799Z,95058.50
2019-04-27T13:57:12.844Z,95062.52
2019-04-27T13:59:42.699Z,95048.11
2019-04-27T14:02:13.544Z,95060.06
2019-04-27T14:04:43.607Z,95046.58
2019-04-27T14:07:13.579Z,95040.88
2019-04-27T14:09:43.552Z,95045.25
2019-04-27T14:12:21.318Z,95031.20
2019-04-27T14:14:51.498Z,95044.37
2019-04-27T14:17:21.602Z,95044.34
2019-04-27T14:19:51.451Z,95026.39
2019-04-27T14:22:22.339Z,95049.72
2019-04-27T14:24:52.227Z,95030.90
2019-04-27T14:27:25.501Z,95024.30
2019-04-27T14:29:57.099Z,95025.72
2019-04-27T14:32:28.703Z,95025.12
2019-04-27T14:34:59.209Z,95020.55
2019-04-27T14:37:29.281Z,95022.70
2019-04-27T14:39:59.784Z,95017.37
2019-04-27T14:42:31.257Z,95028.92
2019-04-27T14:45:01.233Z,95015.61
2019-04-27T14:47:32.320Z,95014.03
2019-04-27T14:50:02.369Z,95023.19
2019-04-27T14:52:32.366Z,94999.44
2019-04-27T14:55:02.401Z,95001.47
2019-04-27T14:57:32.418Z,94994.55
2019-04-27T15:00:02.397Z,95004.17
2019-04-27T15:02:32.330Z,94996.89
2019-04-27T15:05:02.181Z,94995.34
2019-04-27T15:07:32.027Z,95003.47
2019-04-27T15:10:01.907Z,94986.59
2019-04-27T15:12:32.431Z,94997.70
2019-04-27T15:15:02.455Z,94983.53
2019-04-27T15:17:32.287Z,94990.40
2019-04-27T15:20:06.604Z,94983.47
2019-04-27T15:22:36.613Z,94982.66
2019-04-27T15:25:11.954Z,94983.91
2019-04-27T15:27:43.627Z,94979.45
2019-04-27T15:30:22.186Z,94981.48
2019-04-27T15:33:16.043Z,94977.03
2019-04-27T15:35:48.814Z,94974.14
2019-04-27T15:38:22.782Z,94982.24
2019-04-27T15:41:10.549Z,94971.00
2019-04-27T15:43:41.636Z,94976.69
2019-04-27T15:46:11.896Z,94975.09
2019-04-27T15:48:41.829Z,94984.25
2019-04-27T15:51:17.408Z,94979.05
2019-04-27T15:53:45.828Z,94972.38
2019-04-27T15:56:15.433Z,94970.36
2019-04-27T15:58:45.424Z,94975.06
2019-04-27T16:01:15.415Z,94967.45
2019-04-27T16:03:45.442Z,94954.47
2019-04-27T16:06:15.438Z,94972.02
2019-04-27T16:08:47.053Z,94975.66
2019-04-27T16:11:19.690Z,94970.87
2019-04-27T16:13:48.929Z,94970.31
2019-04-27T16:16:19.530Z,94966.95
2019-04-27T16:18:49.507Z,94965.64
2019-04-27T16:21:20.059Z,94974.92
2019-04-27T16:23:50.156Z,94968.56
2019-04-27T16:26:20.271Z,94959.70
2019-04-27T16:28:53.422Z,94960.11
2019-04-27T16:31:24.823Z,94971.98
2019-04-27T16:33:54.110Z,94954.42
2019-04-27T16:36:25.211Z,94968.81
2019-04-27T16:39:08.310Z,94964.64
2019-04-27T16:41:41.852Z,94969.86
2019-04-27T16:44:11.317Z,94962.64
2019-04-27T16:46:43.035Z,94973.06
2019-04-27T16:49:14.809Z,94965.30
2019-04-27T16:51:44.942Z,94958.03
2019-04-27T16:54:17.672Z,94953.23
2019-04-27T16:56:53.089Z,94951.06
2019-04-27T16:59:39.255Z,94950.55
2019-04-27T17:01:50.438Z,94963.31
2019-04-27T17:04:20.310Z,94958.94
2019-04-27T17:06:50.243Z,94954.20
2019-04-27T17:09:20.161Z,94954.03
2019-04-27T17:11:51.745Z,94953.31
2019-04-27T17:14:59.072Z,94947.17
2019-04-27T17:17:38.666Z,94943.31
2019-04-27T17:20:12.911Z,94949.63
2019-04-27T17:22:41.591Z,94952.88
2019-04-27T17:25:15.337Z,94952.67
2019-04-27T17:27:49.634Z,94953.13
2019-04-27T17:30:20.125Z,94959.02
2019-04-27T17:32:58.827Z,94960.83
2019-04-27T17:35:30.290Z,94962.31
2019-04-27T17:38:03.722Z,94960.88
2019-04-27T17:40:34.519Z,94965.00
2019-04-27T17:43:06.819Z,94970.27
2019-04-27T17:45:36.181Z,94979.00
2019-04-27T17:48:10.687Z,94996.06
2019-04-27T17:50:38.760Z,94988.50
2019-04-27T17:53:08.769Z,94993.58
2019-04-27T17:55:38.767Z,94986.44
2019-04-27T17:58:08.761Z,95000.74
2019-04-27T18:00:43.631Z,95011.09
2019-04-27T18:03:12.542Z,95004.66
2019-04-27T18:05:43.753Z,95020.03
2019-04-27T18:08:18.337Z,95020.91
2019-04-27T18:10:46.472Z,95037.46
2019-04-27T18:13:19.006Z,95049.53
2019-04-27T18:15:53.991Z,95050.72
2019-04-27T18:18:33.083Z,95063.05
2019-04-27T18:21:02.993Z,95064.52
2019-04-27T18:23:34.838Z,95076.13
2019-04-27T18:26:17.564Z,95076.16
2019-04-27T18:28:45.950Z,95098.75
2019-04-27T18:31:17.920Z,95092.25
2019-04-27T18:33:48.984Z,95101.73
2019-04-27T18:36:19.016Z,95105.37
2019-04-27T18:38:49.665Z,95105.19
2019-04-27T18:41:19.799Z,95112.98
2019-04-27T18:43:52.264Z,95119.69
2019-04-27T18:46:24.458Z,95151.42
2019-04-27T18:49:11.940Z,95154.47
2019-04-27T18:52:04.457Z,95194.69
2019-04-27T18:54:33.151Z,95210.94
2019-04-27T18:57:04.877Z,95207.41
2019-04-27T18:59:34.945Z,95205.35
2019-04-27T19:02:04.970Z,95210.32
2019-04-27T19:04:34.972Z,95222.63
2019-04-27T19:07:04.960Z,95236.72
2019-04-27T19:09:35.327Z,95242.33
2019-04-27T19:12:05.537Z,95231.55
2019-04-27T19:14:35.446Z,95230.77
2019-04-27T19:17:05.446Z,95233.50
2019-04-27T19:19:35.373Z,95255.70
2019-04-27T19:22:05.458Z,95255.22
2019-04-27T19:24:35.379Z,95266.55
2019-04-27T19:27:42.737Z,95262.40
2019-04-27T19:30:24.715Z,95261.47
2019-04-27T19:32:54.637Z,95270.73
2019-04-27T19:35:24.655Z,95273.81
2019-04-27T19:37:54.642Z,95265.88
2019-04-27T19:40:24.685Z,95273.89
2019-04-27T19:42:54.789Z,95278.83
2019-04-27T19:45:24.830Z,95282.09
2019-04-27T19:47:54.733Z,95294.17
2019-04-27T19:50:24.730Z,95292.00
2019-04-27T19:52:54.640Z,95296.31
2019-04-27T19:55:24.620Z,95280.33
2019-04-27T19:57:54.530Z,95277.95
2019-04-27T20:00:48.278Z,95283.80
2019-04-27T20:03:21.553Z,95279.55
2019-04-27T20:05:52.515Z,95290.69
2019-04-27T20:08:24.839Z,95296.00
2019-04-27T20:10:54.762Z,95297.97
2019-04-27T20:13:24.710Z,95288.72
2019-04-27T20:15:57.443Z,95292.00
2019-04-27T20:18:27.558Z,95300.14
2019-04-27T20:20:57.457Z,95290.28
2019-04-27T20:23:27.391Z,95299.39
2019-04-27T20:25:57.377Z,95296.28
2019-04-27T20:28:27.196Z,95303.94
2019-04-27T20:30:57.110Z,95300.04
2019-04-27T20:33:27.054Z,95309.15
2019-04-27T20:35:56.988Z,95318.12
2019-04-27T20:38:26.889Z,95310.44
2019-04-27T20:40:56.798Z,95316.39
2019-04-27T20:43:26.657Z,95316.64
2019-04-27T20:45:56.590Z,95313.02
2019-04-27T20:48:27.619Z,95313.70
2019-04-27T20:50:57.679Z,95308.34
2019-04-27T20:53:32.312Z,95325.14
2019-04-27T20:56:02.310Z,95321.30
2019-04-27T20:58:32.239Z,95317.16
2019-04-27T21:01:02.218Z,95330.30
2019-04-27T21:03:41.063Z,95330.60
2019-04-27T21:06:28.042Z,95325.52
2019-04-27T21:08:57.932Z,95330.88
2019-04-27T21:11:43.383Z,95330.09
2019-04-27T21:14:13.466Z,95329.77
2019-04-27T21:16:43.589Z,95337.42
2019-04-27T21:19:15.099Z,95325.89
2019-04-27T21:21:45.119Z,95330.27
2019-04-27T21:24:14.979Z,95331.31
2019-04-27T21:26:47.327Z,95332.75
2019-04-27T21:29:17.149Z,95331.22
2019-04-27T21:31:47.043Z,95331.05
2019-04-27T21:34:16.875Z,95320.88
2019-04-27T21:36:46.782Z,95325.48
2019-04-27T21:39:16.705Z,95327.94
2019-04-27T21:41:46.763Z,95329.66
2019-04-27T21:44:16.951Z,95351.41
2019-04-27T21:46:46.769Z,95342.23
2019-04-27T21:49:16.666Z,95334.77
2019-04-27T21:52:04.659Z,95332.88
2019-04-27T21:54:35.472Z,95335.66
2019-04-27T21:57:05.422Z,95342.65
2019-04-27T21:59:35.423Z,95347.41
2019-04-27T22:02:06.869Z,95357.20
2019-04-27T22:04:36.983Z,95364.83
2019-04-27T22:07:06.940Z,95376.83
2019-04-27T22:09:36.938Z,95372.63
2019-04-27T22:12:06.950Z,95384.10
2019-04-27T22:14:36.945Z,95378.36
2019-04-27T22:17:06.833Z,95387.67
2019-04-27T22:19:36.821Z,95389.41
2019-04-27T22:22:12.564Z,95389.63
2019-04-27T22:24:43.091Z,95390.84
2019-04-27T22:27:13.107Z,95393.83
2019-04-27T22:29:42.933Z,95396.44
2019-04-27T22:32:12.988Z,95401.00
2019-04-27T22:34:43.001Z,95418.77
2019-04-27T22:37:12.895Z,95404.75
2019-04-27T22:39:52.762Z,95399.77
2019-04-27T22:42:41.725Z,95404.20
2019-04-27T22:45:16.553Z,95416.23
2019-04-27T22:47:46.380Z,95420.36
2019-04-27T22:50:16.442Z,95439.20
2019-04-27T22:52:46.494Z,95425.90
2019-04-27T22:55:16.514Z,95430.98
2019-04-27T22:57:51.767Z,95426.31
2019-04-27T23:00:41.794Z,95429.80
2019-04-27T23:03:15.301Z,95436.99
2019-04-27T23:05:45.211Z,95423.21
2019-04-27T23:08:15.289Z,95413.71
2019-04-27T23:10:45.186Z,95416.27
2019-04-27T23:13:15.144Z,95420.63
2019-04-27T23:15:47.369Z,95414.18
2019-04-27T23:18:17.277Z,95411.88
2019-04-27T23:20:47.264Z,95415.00
2019-04-27T23:23:17.254Z,95422.39
2019-04-27T23:25:47.142Z,95423.84
2019-04-27T23:28:17.081Z,95423.19
2019-04-27T23:31:02.267Z,95419.44
2019-04-27T23:33:31.279Z,95421.61
2019-04-27T23:36:01.617Z,95417.84
2019-04-27T23:38:31.590Z,95434.50
2019-04-27T23:41:01.886Z,95430.38
2019-04-27T23:43:31.899Z,95416.02
2019-04-27T23:46:01.954Z,95421.92
2019-04-27T23:48:32.156Z,95418.82
2019-04-27T23:51:12.750Z,95422.69
2019-04-27T23:53:42.654Z,95413.02
2019-04-27T23:56:15.581Z,95416.67
2019-04-27T23:58:45.477Z,95413.66
